createdAt,value
2019-03-01T00:00:58.416Z,11.63
2019-03-01T00:03:27.044Z,12.20
2019-03-01T00:06:08.937Z,13.08
2019-03-01T00:08:41.525Z,12.13
2019-03-01T00:11:11.233Z,12.97
2019-03-01T00:13:49.939Z,13.40
2019-03-01T00:16:37.387Z,13.57
2019-03-01T00:19:16.529Z,14.43
2019-03-01T00:21:52.141Z,14.50
2019-03-01T00:24:36.821Z,15.77
2019-03-01T00:27:23.248Z,15.17
2019-03-01T00:29:55.654Z,16.10
2019-03-01T00:32:34.327Z,17.07
2019-03-01T00:35:06.955Z,16.43
2019-03-01T00:37:36.703Z,14.17
2019-03-01T00:40:09.519Z,14.90
2019-03-01T00:42:45.672Z,17.73
2019-03-01T00:45:13.781Z,16.13
2019-03-01T00:47:41.974Z,17.10
2019-03-01T00:50:10.176Z,16.67
2019-03-01T00:52:38.381Z,16.02
2019-03-01T00:55:07.487Z,16.37
2019-03-01T00:57:35.607Z,15.68
2019-03-01T01:00:05.308Z,15.67
2019-03-01T01:02:33.446Z,15.73
2019-03-01T01:05:02.322Z,18.07
2019-03-01T01:07:30.420Z,17.13
2019-03-01T01:09:58.539Z,17.67
2019-03-01T01:12:26.718Z,14.60
2019-03-01T01:14:54.865Z,16.23
2019-03-01T01:17:23.021Z,16.10
2019-03-01T01:19:51.149Z,15.63
2019-03-01T01:22:19.336Z,15.67
2019-03-01T01:24:47.500Z,15.70
2019-03-01T01:27:15.683Z,16.65
2019-03-01T01:29:59.274Z,14.33
2019-03-01T01:32:27.496Z,14.73
2019-03-01T01:34:55.604Z,14.73
2019-03-01T01:37:23.821Z,15.10
2019-03-01T01:39:51.939Z,15.07
2019-03-01T01:42:20.039Z,13.97
2019-03-01T01:44:48.176Z,14.30
2019-03-01T01:47:16.294Z,14.33
2019-03-01T01:49:44.406Z,13.93
2019-03-01T01:52:14.238Z,14.53
2019-03-01T01:54:42.418Z,15.10
2019-03-01T01:57:10.530Z,14.07
2019-03-01T01:59:38.748Z,13.73
2019-03-01T02:02:06.955Z,14.53
2019-03-01T02:04:35.079Z,13.57
2019-03-01T02:07:03.456Z,14.38
2019-03-01T02:09:31.572Z,13.73
2019-03-01T02:11:59.690Z,13.27
2019-03-01T02:14:27.899Z,15.47
2019-03-01T02:16:56.054Z,12.93
2019-03-01T02:19:24.163Z,11.70
2019-03-01T02:21:52.282Z,12.87
2019-03-01T02:24:20.432Z,12.93
2019-03-01T02:26:48.541Z,14.20
2019-03-01T02:29:16.681Z,12.50
2019-03-01T02:31:47.317Z,12.05
2019-03-01T02:34:15.462Z,13.03
2019-03-01T02:37:11.143Z,12.47
2019-03-01T02:39:39.277Z,11.87
2019-03-01T02:42:07.392Z,13.40
2019-03-01T02:44:35.524Z,12.63
2019-03-01T02:47:03.789Z,13.00
2019-03-01T02:49:31.998Z,12.57
2019-03-01T02:52:00.134Z,13.10
2019-03-01T02:54:28.247Z,12.57
2019-03-01T02:56:56.383Z,11.47
2019-03-01T02:59:24.510Z,13.58
2019-03-01T03:01:52.783Z,12.60
2019-03-01T03:04:20.921Z,13.60
2019-03-01T03:07:03.170Z,12.73
2019-03-01T03:09:31.307Z,12.27
2019-03-01T03:11:59.534Z,11.97
2019-03-01T03:14:27.661Z,12.00
2019-03-01T03:16:55.785Z,11.87
2019-03-01T03:19:23.954Z,12.95
2019-03-01T03:21:53.914Z,12.43
2019-03-01T03:26:55.871Z,13.17
2019-03-01T03:29:23.982Z,12.68
2019-03-01T03:31:52.112Z,12.03
2019-03-01T03:34:20.964Z,11.87
2019-03-01T03:36:49.118Z,12.93
2019-03-01T03:39:17.251Z,13.57
2019-03-01T03:41:45.430Z,13.62
2019-03-01T03:44:13.598Z,14.90
2019-03-01T03:46:41.719Z,14.03
2019-03-01T03:49:09.856Z,14.87
2019-03-01T03:52:11.331Z,13.37
2019-03-01T03:54:39.449Z,14.63
2019-03-01T03:57:07.618Z,13.23
2019-03-01T03:59:35.829Z,13.57
2019-03-01T04:02:04.025Z,14.23
2019-03-01T04:07:42.690Z,10.90
2019-03-01T04:10:10.991Z,11.95
2019-03-01T04:12:39.180Z,12.40
2019-03-01T04:15:08.949Z,12.30
2019-03-01T04:17:37.071Z,11.45
2019-03-01T04:20:06.698Z,11.53
2019-03-01T04:22:34.895Z,14.07
2019-03-01T04:25:03.311Z,13.27
2019-03-01T04:27:31.446Z,12.40
2019-03-01T04:29:59.663Z,12.50
2019-03-01T04:32:27.774Z,12.93
2019-03-01T04:37:55.235Z,11.27
2019-03-01T04:40:23.927Z,12.67
2019-03-01T04:42:52.153Z,11.77
2019-03-01T04:45:20.365Z,13.50
2019-03-01T04:47:48.582Z,12.67
2019-03-01T04:50:16.772Z,12.50
2019-03-01T04:52:44.994Z,13.78
2019-03-01T04:55:17.478Z,16.43
2019-03-01T04:57:45.646Z,14.85
2019-03-01T05:00:15.061Z,17.97
2019-03-01T05:02:43.701Z,19.13
2019-03-01T05:05:12.185Z,19.73
2019-03-01T05:07:40.412Z,19.67
2019-03-01T05:10:09.965Z,20.32
2019-03-01T05:12:38.122Z,21.57
2019-03-01T05:15:08.137Z,17.27
2019-03-01T05:17:36.346Z,18.83
2019-03-01T05:20:05.238Z,17.43
2019-03-01T05:22:33.430Z,17.27
2019-03-01T05:25:01.562Z,15.83
2019-03-01T05:27:29.800Z,16.70
2019-03-01T05:29:57.925Z,15.27
2019-03-01T05:32:26.789Z,15.63
2019-03-01T05:34:55.012Z,14.80
2019-03-01T05:37:23.136Z,15.13
2019-03-01T05:39:51.368Z,15.97
2019-03-01T05:42:19.488Z,18.30
2019-03-01T05:44:47.623Z,17.90
2019-03-01T05:47:15.753Z,18.40
2019-03-01T05:49:43.889Z,17.43
2019-03-01T05:52:12.046Z,19.63
2019-03-01T05:54:40.250Z,21.20
2019-03-01T05:57:08.370Z,19.50
2019-03-01T05:59:36.474Z,19.70
2019-03-01T06:02:06.286Z,18.70
2019-03-01T06:04:47.978Z,21.37
2019-03-01T06:07:20.341Z,19.07
2019-03-01T06:09:52.791Z,19.40
2019-03-01T06:12:37.734Z,21.57
2019-03-01T06:15:10.316Z,21.83
2019-03-01T06:17:48.791Z,24.20
2019-03-01T06:20:21.119Z,23.17
2019-03-01T06:22:50.803Z,23.57
2019-03-01T06:25:38.461Z,24.50
2019-03-01T06:28:20.124Z,23.53
2019-03-01T06:31:02.114Z,25.62
2019-03-01T06:33:37.888Z,24.80
2019-03-01T06:36:13.621Z,27.37
2019-03-01T06:38:47.921Z,26.60
2019-03-01T06:41:24.965Z,30.83
2019-03-01T06:43:57.775Z,29.53
2019-03-01T06:46:33.626Z,31.77
2019-03-01T06:49:03.533Z,32.33
2019-03-01T06:51:31.675Z,35.60
2019-03-01T06:53:59.789Z,36.97
2019-03-01T06:56:27.998Z,39.07
2019-03-01T06:58:56.188Z,41.43
2019-03-01T07:01:25.831Z,43.02
2019-03-01T07:03:54.482Z,48.43
2019-03-01T07:06:22.670Z,47.43
2019-03-01T07:08:50.799Z,57.83
2019-03-01T07:11:18.907Z,64.57
2019-03-01T07:13:47.056Z,65.73
2019-03-01T07:16:15.238Z,68.72
2019-03-01T07:18:43.784Z,67.58
2019-03-01T07:21:11.904Z,65.50
2019-03-01T07:23:40.060Z,62.53
2019-03-01T07:26:08.206Z,67.93
2019-03-01T07:28:36.352Z,69.80
2019-03-01T07:31:07.006Z,72.95
2019-03-01T07:33:35.047Z,72.50
2019-03-01T07:36:03.178Z,69.40
2019-03-01T07:38:31.300Z,68.37
2019-03-01T07:40:59.450Z,71.37
2019-03-01T07:43:27.631Z,69.20
2019-03-01T07:45:55.761Z,69.57
2019-03-01T07:48:23.889Z,69.40
2019-03-01T07:50:52.503Z,70.47
2019-03-01T07:53:21.917Z,66.30
2019-03-01T07:55:50.058Z,70.07
2019-03-01T07:58:18.270Z,65.97
2019-03-01T08:00:47.177Z,63.50
2019-03-01T08:03:16.351Z,64.77
2019-03-01T08:05:45.279Z,70.70
2019-03-01T08:08:13.467Z,66.90
2019-03-01T08:10:41.671Z,73.50
2019-03-01T08:13:09.869Z,69.50
2019-03-01T08:15:40.743Z,75.17
2019-03-01T08:18:09.199Z,69.47
2019-03-01T08:20:37.588Z,66.40
2019-03-01T08:23:06.500Z,60.23
2019-03-01T08:25:34.641Z,61.68
2019-03-01T08:28:02.912Z,53.27
2019-03-01T08:30:31.097Z,54.40
2019-03-01T08:33:02.675Z,48.97
2019-03-01T08:35:31.985Z,50.33
2019-03-01T08:37:59.105Z,46.75
2019-03-01T08:40:27.224Z,47.57
2019-03-01T08:42:55.372Z,44.23
2019-03-01T08:45:23.528Z,47.27
2019-03-01T08:47:51.659Z,47.50
2019-03-01T08:50:19.869Z,48.23
2019-03-01T08:52:48.059Z,46.47
2019-03-01T08:55:19.723Z,47.93
2019-03-01T08:57:47.869Z,47.13
2019-03-01T09:00:35.636Z,43.42
2019-03-01T09:03:09.440Z,43.10
2019-03-01T09:05:37.634Z,43.50
2019-03-01T09:08:05.780Z,46.27
2019-03-01T09:10:33.995Z,47.20
2019-03-01T09:13:02.233Z,49.47
2019-03-01T09:15:30.380Z,50.03
2019-03-01T09:17:58.581Z,45.10
2019-03-01T09:20:27.122Z,48.03
2019-03-01T09:22:55.323Z,49.10
2019-03-01T09:25:23.572Z,45.00
2019-03-01T09:27:51.840Z,47.00
2019-03-01T09:30:24.467Z,46.40
2019-03-01T09:32:52.596Z,48.10
2019-03-01T09:35:29.792Z,47.10
2019-03-01T09:37:58.508Z,50.10
2019-03-01T09:40:28.828Z,48.73
2019-03-01T09:42:56.595Z,48.97
2019-03-01T09:45:24.785Z,46.10
2019-03-01T09:47:52.920Z,45.47
2019-03-01T09:50:21.135Z,47.55
2019-03-01T09:52:49.316Z,47.50
2019-03-01T09:55:17.814Z,48.80
2019-03-01T09:57:45.987Z,46.20
2019-03-01T10:00:19.106Z,48.57
2019-03-01T10:02:47.350Z,49.45
2019-03-01T10:05:15.502Z,48.47
2019-03-01T10:07:43.630Z,50.03
2019-03-01T10:10:21.846Z,43.40
2019-03-01T10:12:49.986Z,45.23
2019-03-01T10:15:18.132Z,46.47
2019-03-01T10:17:46.261Z,44.10
2019-03-01T10:20:14.771Z,42.70
2019-03-01T10:22:43.055Z,47.97
2019-03-01T10:25:12.351Z,44.50
2019-03-01T10:27:40.514Z,46.60
2019-03-01T10:30:10.183Z,40.98
2019-03-01T10:32:38.379Z,43.63
2019-03-01T10:35:07.887Z,43.03
2019-03-01T10:37:36.166Z,43.80
2019-03-01T10:40:05.959Z,45.00
2019-03-01T10:42:34.087Z,46.97
2019-03-01T10:45:02.325Z,45.83
2019-03-01T10:47:30.830Z,41.42
2019-03-01T10:49:58.965Z,40.90
2019-03-01T10:52:27.087Z,42.37
2019-03-01T10:54:55.355Z,42.63
2019-03-01T10:57:23.522Z,43.28
2019-03-01T10:59:51.652Z,46.57
2019-03-01T11:02:19.855Z,38.60
2019-03-01T11:04:48.008Z,40.60
2019-03-01T11:07:16.218Z,38.70
2019-03-01T11:09:44.415Z,39.30
2019-03-01T11:12:13.353Z,39.47
2019-03-01T11:14:41.487Z,40.00
2019-03-01T11:17:09.782Z,39.37
2019-03-01T11:19:37.936Z,38.05
2019-03-01T11:22:06.187Z,41.40
2019-03-01T11:24:34.396Z,44.07
2019-03-01T11:27:02.524Z,39.23
2019-03-01T11:29:30.674Z,43.57
2019-03-01T11:31:59.627Z,44.97
2019-03-01T11:34:27.746Z,45.05
2019-03-01T11:36:56.083Z,42.65
2019-03-01T11:39:24.651Z,45.38
2019-03-01T11:41:52.844Z,40.27
2019-03-01T11:44:21.183Z,35.50
2019-03-01T11:46:49.351Z,34.53
2019-03-01T11:49:17.541Z,40.40
2019-03-01T11:51:45.688Z,43.10
2019-03-01T11:54:13.931Z,31.97
2019-03-01T11:56:42.147Z,33.07
2019-03-01T11:59:10.313Z,37.93
2019-03-01T12:01:39.207Z,28.55
2019-03-01T12:04:07.339Z,25.23
2019-03-01T12:06:35.487Z,25.27
2019-03-01T12:09:04.993Z,22.27
2019-03-01T12:11:33.140Z,21.17
2019-03-01T12:14:01.271Z,25.30
2019-03-01T12:16:29.467Z,23.33
2019-03-01T12:18:58.370Z,29.57
2019-03-01T12:21:26.506Z,29.97
2019-03-01T12:23:54.696Z,33.33
2019-03-01T12:26:22.834Z,46.70
2019-03-01T12:28:50.969Z,54.63
2019-03-01T12:31:19.088Z,41.95
2019-03-01T12:33:47.315Z,39.80
2019-03-01T12:36:15.725Z,46.80
2019-03-01T12:38:43.945Z,38.93
2019-03-01T12:41:12.235Z,40.50
2019-03-01T12:43:40.542Z,41.40
2019-03-01T12:46:08.669Z,44.67
2019-03-01T12:48:36.835Z,31.77
2019-03-01T12:51:04.989Z,34.67
2019-03-01T12:53:33.168Z,34.27
2019-03-01T12:56:01.393Z,29.67
2019-03-01T12:58:29.756Z,29.50
2019-03-01T13:00:57.953Z,30.35
2019-03-01T13:03:26.146Z,17.97
2019-03-01T13:05:54.278Z,15.03
2019-03-01T13:08:22.414Z,18.20
2019-03-01T13:10:51.429Z,17.43
2019-03-01T13:13:20.291Z,15.30
2019-03-01T13:15:51.991Z,13.83
2019-03-01T13:18:18.495Z,14.10
2019-03-01T13:20:46.631Z,15.27
2019-03-01T13:23:14.855Z,14.95
2019-03-01T13:25:44.294Z,30.27
2019-03-01T13:28:13.456Z,20.97
2019-03-01T13:30:41.633Z,18.24
2019-03-01T13:33:09.783Z,21.17
2019-03-01T13:35:37.916Z,20.32
2019-03-01T13:38:06.130Z,20.73
2019-03-01T13:40:34.371Z,23.62
2019-03-01T13:43:02.499Z,18.77
2019-03-01T13:45:30.701Z,17.43
2019-03-01T13:47:58.922Z,15.53
2019-03-01T13:50:27.119Z,18.65
2019-03-01T13:52:55.663Z,17.60
2019-03-01T13:55:23.992Z,20.60
2019-03-01T13:57:52.238Z,20.40
2019-03-01T14:00:21.140Z,19.20
2019-03-01T14:02:49.741Z,18.97
2019-03-01T14:05:18.302Z,20.57
2019-03-01T14:07:46.840Z,18.70
2019-03-01T14:10:16.335Z,23.27
2019-03-01T14:12:44.563Z,28.33
2019-03-01T14:15:23.752Z,27.97
2019-03-01T14:17:51.612Z,36.63
2019-03-01T14:20:21.130Z,36.00
2019-03-01T14:22:49.617Z,33.60
2019-03-01T14:25:18.065Z,36.33
2019-03-01T14:27:46.295Z,34.27
2019-03-01T14:30:15.963Z,34.03
2019-03-01T14:32:44.234Z,33.70
2019-03-01T14:35:12.667Z,30.13
2019-03-01T14:37:40.862Z,29.97
2019-03-01T14:40:13.291Z,26.33
2019-03-01T14:42:46.508Z,24.18
2019-03-01T14:45:15.790Z,17.90
2019-03-01T14:47:43.975Z,17.17
2019-03-01T14:50:13.649Z,16.13
2019-03-01T14:52:41.848Z,15.77
2019-03-01T14:55:14.326Z,14.83
2019-03-01T14:57:46.194Z,17.33
2019-03-01T15:00:15.258Z,17.43
2019-03-01T15:02:44.933Z,17.40
2019-03-01T15:05:17.792Z,15.67
2019-03-01T15:07:43.160Z,15.60
2019-03-01T15:10:12.202Z,15.13
2019-03-01T15:12:40.414Z,15.10
2019-03-01T15:15:10.300Z,14.53
2019-03-01T15:17:38.561Z,16.27
2019-03-01T15:20:08.219Z,16.60
2019-03-01T15:22:36.409Z,16.97
2019-03-01T15:25:08.226Z,15.83
2019-03-01T15:27:39.728Z,16.20
2019-03-01T15:30:12.716Z,15.23
2019-03-01T15:32:43.144Z,14.73
2019-03-01T15:35:11.347Z,16.30
2019-03-01T15:37:40.008Z,15.90
2019-03-01T15:40:09.039Z,16.90
2019-03-01T15:42:37.923Z,14.27
2019-03-01T15:45:10.256Z,16.33
2019-03-01T15:47:38.530Z,16.30
2019-03-01T15:50:08.241Z,15.60
2019-03-01T15:52:36.514Z,14.57
2019-03-01T15:55:07.692Z,15.63
2019-03-01T15:57:35.810Z,14.23
2019-03-01T16:00:05.476Z,15.07
2019-03-01T16:02:34.475Z,15.63
2019-03-01T16:05:02.729Z,16.27
2019-03-01T16:07:32.299Z,15.80
2019-03-01T16:10:01.261Z,17.63
2019-03-01T16:12:32.387Z,15.63
2019-03-01T16:15:01.372Z,16.30
2019-03-01T16:17:30.147Z,15.73
2019-03-01T16:19:58.295Z,15.43
2019-03-01T16:22:26.451Z,14.58
2019-03-01T16:24:54.634Z,15.55
2019-03-01T16:27:22.779Z,14.23
2019-03-01T16:29:50.979Z,11.20
2019-03-01T16:32:19.108Z,10.05
2019-03-01T16:34:47.229Z,12.27
2019-03-01T16:37:15.377Z,11.13
2019-03-01T16:39:43.644Z,10.73
2019-03-01T16:42:14.606Z,9.10
2019-03-01T16:44:44.659Z,8.03
2019-03-01T16:47:11.713Z,9.63
2019-03-01T16:49:39.916Z,9.23
2019-03-01T16:52:08.130Z,8.30
2019-03-01T16:54:36.333Z,9.53
2019-03-01T16:57:04.456Z,8.48
2019-03-01T16:59:32.646Z,8.70
2019-03-01T17:02:06.048Z,7.60
2019-03-01T17:04:30.737Z,7.50
2019-03-01T17:06:58.971Z,7.67
2019-03-01T17:09:27.095Z,6.83
2019-03-01T17:11:55.349Z,6.50
2019-03-01T17:14:23.541Z,6.63
2019-03-01T17:16:51.776Z,6.00
2019-03-01T17:19:20.546Z,6.77
2019-03-01T17:21:50.958Z,6.17
2019-03-01T17:24:21.334Z,7.00
2019-03-01T17:26:50.145Z,5.70
2019-03-01T17:29:18.352Z,5.97
2019-03-01T17:31:47.334Z,5.67
2019-03-01T17:34:15.457Z,5.77
2019-03-01T17:36:43.610Z,6.80
2019-03-01T17:39:11.875Z,6.42
2019-03-01T17:41:44.643Z,5.47
2019-03-01T17:44:09.963Z,5.80
2019-03-01T17:46:38.083Z,5.90
2019-03-01T17:49:06.633Z,6.00
2019-03-01T17:51:34.781Z,6.50
2019-03-01T17:54:03.108Z,6.97
2019-03-01T17:56:31.366Z,6.03
2019-03-01T17:58:59.563Z,6.33
2019-03-01T18:01:27.820Z,5.78
2019-03-01T18:04:01.348Z,5.90
2019-03-01T18:06:28.413Z,6.77
2019-03-01T18:08:56.755Z,5.83
2019-03-01T18:11:26.131Z,6.33
2019-03-01T18:13:56.856Z,7.17
2019-03-01T18:16:24.892Z,6.83
2019-03-01T18:18:54.032Z,6.17
2019-03-01T18:21:22.383Z,6.80
2019-03-01T18:23:50.704Z,7.27
2019-03-01T18:26:19.137Z,6.53
2019-03-01T18:28:47.258Z,7.05
2019-03-01T18:31:15.515Z,7.60
2019-03-01T18:33:44.410Z,6.90
2019-03-01T18:38:47.143Z,7.50
2019-03-01T18:41:15.368Z,8.30
2019-03-01T18:43:45.869Z,7.90
2019-03-01T18:46:14.589Z,8.77
2019-03-01T18:48:44.108Z,8.43
2019-03-01T18:51:13.141Z,8.03
2019-03-01T18:53:41.364Z,8.80
2019-03-01T18:56:09.717Z,8.20
2019-03-01T18:58:37.925Z,9.43
2019-03-01T19:01:07.785Z,9.07
2019-03-01T19:03:40.303Z,10.90
2019-03-01T19:06:06.573Z,9.13
2019-03-01T19:08:36.458Z,9.77
2019-03-01T19:11:05.534Z,10.20
2019-03-01T19:13:33.765Z,12.27
2019-03-01T19:16:01.976Z,11.23
2019-03-01T19:18:30.145Z,11.73
2019-03-01T19:20:58.539Z,12.37
2019-03-01T19:23:29.324Z,12.55
2019-03-01T19:25:57.863Z,13.17
2019-03-01T19:28:27.636Z,9.63
2019-03-01T19:30:56.889Z,12.00
2019-03-01T19:33:25.138Z,14.35
2019-03-01T19:35:53.338Z,12.50
2019-03-01T19:38:24.694Z,11.17
2019-03-01T19:40:51.615Z,10.50
2019-03-01T19:43:19.952Z,11.10
2019-03-01T19:45:48.137Z,10.73
2019-03-01T19:48:16.350Z,11.17
2019-03-01T19:50:44.578Z,14.33
2019-03-01T19:53:12.777Z,12.47
2019-03-01T19:55:44.039Z,12.18
2019-03-01T19:58:11.880Z,12.80
2019-03-01T20:00:42.465Z,14.63
2019-03-01T20:03:11.294Z,12.17
2019-03-01T20:05:40.487Z,13.33
2019-03-01T20:08:08.647Z,12.03
2019-03-01T20:10:37.073Z,12.57
2019-03-01T20:13:05.350Z,12.67
2019-03-01T20:15:34.378Z,13.40
2019-03-01T20:18:03.089Z,13.95
2019-03-01T20:20:33.351Z,13.47
2019-03-01T20:23:01.475Z,14.07
2019-03-01T20:25:29.757Z,14.57
2019-03-01T20:27:58.014Z,13.08
2019-03-01T20:30:30.162Z,14.35
2019-03-01T20:32:58.091Z,11.65
2019-03-01T20:35:26.424Z,10.38
2019-03-01T20:37:55.550Z,10.72
2019-03-01T20:40:26.754Z,6.13
2019-03-01T20:42:55.968Z,8.13
2019-03-01T20:45:30.082Z,9.27
2019-03-01T20:47:57.854Z,10.33
2019-03-01T20:50:26.104Z,8.85
2019-03-01T20:52:54.356Z,11.15
2019-03-01T20:55:23.949Z,10.50
2019-03-01T20:57:53.791Z,9.27
2019-03-01T21:00:26.073Z,10.30
2019-03-01T21:02:55.503Z,18.80
2019-03-01T21:05:25.126Z,9.80
2019-03-01T21:07:54.661Z,9.93
2019-03-01T21:10:24.773Z,9.23
2019-03-01T21:12:52.942Z,10.20
2019-03-01T21:15:22.130Z,9.57
2019-03-01T21:17:52.947Z,7.43
2019-03-01T21:20:21.886Z,22.90
2019-03-01T21:22:50.093Z,9.10
2019-03-01T21:25:19.898Z,8.20
2019-03-01T21:27:48.135Z,7.40
2019-03-01T21:30:20.673Z,7.03
2019-03-01T21:32:50.804Z,7.47
2019-03-01T21:35:17.391Z,7.20
2019-03-01T21:37:45.732Z,6.13
2019-03-01T21:40:14.486Z,6.73
2019-03-01T21:42:42.704Z,7.30
2019-03-01T21:45:12.278Z,7.13
2019-03-01T21:47:40.525Z,7.60
2019-03-01T21:50:09.237Z,6.83
2019-03-01T21:52:37.526Z,6.40
2019-03-01T21:55:09.641Z,7.37
2019-03-01T21:57:38.157Z,7.27
2019-03-01T22:00:10.852Z,7.27
2019-03-01T22:02:39.021Z,7.25
2019-03-01T22:05:10.313Z,7.70
2019-03-01T22:07:38.425Z,8.00
2019-03-01T22:10:08.143Z,7.27
2019-03-01T22:12:36.906Z,9.07
2019-03-01T22:15:12.736Z,8.93
2019-03-01T22:17:41.299Z,9.47
2019-03-01T22:20:10.076Z,9.90
2019-03-01T22:22:38.862Z,9.10
2019-03-01T22:25:08.701Z,7.97
2019-03-01T22:27:36.947Z,8.23
2019-03-01T22:30:06.704Z,7.93
2019-03-01T22:32:35.229Z,8.80
2019-03-01T22:35:08.452Z,8.03
2019-03-01T22:37:34.786Z,7.63
2019-03-01T22:40:03.107Z,8.28
2019-03-01T22:42:31.244Z,9.15
2019-03-01T22:44:59.526Z,8.30
2019-03-01T22:47:27.702Z,8.70
2019-03-01T22:49:55.806Z,8.50
2019-03-01T22:52:26.746Z,8.00
2019-03-01T22:54:53.844Z,13.43
2019-03-01T22:57:25.581Z,8.55
2019-03-01T22:59:52.398Z,8.93
2019-03-01T23:02:20.568Z,9.50
2019-03-01T23:04:48.706Z,10.63
2019-03-01T23:07:16.854Z,11.35
2019-03-01T23:09:46.522Z,12.03
2019-03-01T23:12:20.388Z,12.60
2019-03-01T23:14:48.601Z,12.20
2019-03-01T23:17:16.777Z,13.20
2019-03-01T23:19:47.757Z,13.48
2019-03-01T23:22:15.488Z,14.73
2019-03-01T23:24:43.628Z,12.93
2019-03-01T23:27:12.551Z,13.83
2019-03-01T23:29:40.692Z,14.30
2019-03-01T23:32:11.808Z,13.97
2019-03-01T23:34:38.980Z,12.50
2019-03-01T23:37:08.632Z,12.17
2019-03-01T23:39:36.755Z,12.73
2019-03-01T23:42:05.606Z,13.23
2019-03-01T23:44:33.738Z,13.63
2019-03-01T23:47:02.799Z,13.07
2019-03-01T23:49:31.863Z,15.03
2019-03-01T23:52:00.091Z,16.30
2019-03-01T23:54:28.331Z,16.00
2019-03-01T23:56:56.458Z,17.73
2019-03-01T23:59:26.636Z,17.67
